sensor_id;sensor_type;location;lat;lon;timestamp;P1;durP1;ratioP1;P2;durP2;ratioP2
64598;SDS011;51008;51.504;11.548;2022-08-01T00:01:29;10.38;;;5.30;;
64598;SDS011;51008;51.504;11.548;2022-08-01T00:06:30;6.47;;;5.22;;
64598;SDS011;51008;51.504;11.548;2022-08-01T00:11:31;10.63;;;5.78;;
64598;SDS011;51008;51.504;11.548;2022-08-01T00:16:32;7.88;;;5.22;;
64598;SDS011;51008;51.504;11.548;2022-08-01T00:21:33;8.80;;;5.45;;
64598;SDS011;51008;51.504;11.548;2022-08-01T00:26:34;8.90;;;4.72;;
64598;SDS011;51008;51.504;11.548;2022-08-01T00:31:35;6.03;;;4.47;;
64598;SDS011;51008;51.504;11.548;2022-08-01T00:36:36;7.88;;;4.38;;
64598;SDS011;51008;51.504;11.548;2022-08-01T00:41:37;5.60;;;4.50;;
64598;SDS011;51008;51.504;11.548;2022-08-01T00:46:38;5.63;;;4.15;;
64598;SDS011;51008;51.504;11.548;2022-08-01T00:51:39;6.28;;;4.70;;
64598;SDS011;51008;51.504;11.548;2022-08-01T00:56:40;9.80;;;4.85;;
64598;SDS011;51008;51.504;11.548;2022-08-01T01:01:42;5.30;;;3.92;;
64598;SDS011;51008;51.504;11.548;2022-08-01T01:12:10;6.60;;;4.07;;
64598;SDS011;51008;51.504;11.548;2022-08-01T01:17:16;6.23;;;4.47;;
64598;SDS011;51008;51.504;11.548;2022-08-01T01:33:26;6.82;;;3.88;;
64598;SDS011;51008;51.504;11.548;2022-08-01T01:38:32;6.55;;;3.47;;
64598;SDS011;51008;51.504;11.548;2022-08-01T01:43:35;5.78;;;3.65;;
64598;SDS011;51008;51.504;11.548;2022-08-01T01:48:37;4.53;;;3.30;;
64598;SDS011;51008;51.504;11.548;2022-08-01T01:53:39;5.97;;;3.55;;
64598;SDS011;51008;51.504;11.548;2022-08-01T01:58:42;4.35;;;3.30;;
64598;SDS011;51008;51.504;11.548;2022-08-01T02:03:43;5.88;;;3.40;;
64598;SDS011;51008;51.504;11.548;2022-08-01T02:08:45;5.38;;;3.55;;
64598;SDS011;51008;51.504;11.548;2022-08-01T02:13:55;6.57;;;3.67;;
64598;SDS011;51008;51.504;11.548;2022-08-01T02:18:59;4.93;;;3.85;;
64598;SDS011;51008;51.504;11.548;2022-08-01T02:24:03;6.03;;;3.75;;
64598;SDS011;51008;51.504;11.548;2022-08-01T02:29:27;5.22;;;3.58;;
64598;SDS011;51008;51.504;11.548;2022-08-01T02:34:38;6.32;;;3.88;;
64598;SDS011;51008;51.504;11.548;2022-08-01T02:39:40;6.03;;;3.78;;
64598;SDS011;51008;51.504;11.548;2022-08-01T02:44:42;4.28;;;3.60;;
64598;SDS011;51008;51.504;11.548;2022-08-01T02:49:45;4.15;;;3.30;;
64598;SDS011;51008;51.504;11.548;2022-08-01T02:54:50;6.95;;;3.70;;
64598;SDS011;51008;51.504;11.548;2022-08-01T02:59:56;4.78;;;3.60;;
64598;SDS011;51008;51.504;11.548;2022-08-01T03:04:59;5.30;;;3.43;;
64598;SDS011;51008;51.504;11.548;2022-08-01T03:10:01;5.13;;;3.63;;
64598;SDS011;51008;51.504;11.548;2022-08-01T03:15:03;6.43;;;3.47;;
64598;SDS011;51008;51.504;11.548;2022-08-01T03:20:06;5.60;;;3.83;;
64598;SDS011;51008;51.504;11.548;2022-08-01T03:25:08;5.25;;;3.80;;
64598;SDS011;51008;51.504;11.548;2022-08-01T03:30:12;5.88;;;3.72;;
64598;SDS011;51008;51.504;11.548;2022-08-01T03:35:14;6.05;;;3.42;;
64598;SDS011;51008;51.504;11.548;2022-08-01T03:40:20;5.50;;;3.70;;
64598;SDS011;51008;51.504;11.548;2022-08-01T03:45:31;5.15;;;3.47;;
64598;SDS011;51008;51.504;11.548;2022-08-01T03:50:38;6.00;;;3.92;;
64598;SDS011;51008;51.504;11.548;2022-08-01T03:55:42;5.25;;;3.55;;
64598;SDS011;51008;51.504;11.548;2022-08-01T04:00:44;7.57;;;4.30;;
64598;SDS011;51008;51.504;11.548;2022-08-01T04:05:46;7.10;;;4.38;;
64598;SDS011;51008;51.504;11.548;2022-08-01T04:10:47;5.85;;;4.10;;
64598;SDS011;51008;51.504;11.548;2022-08-01T04:15:48;7.00;;;4.28;;
64598;SDS011;51008;51.504;11.548;2022-08-01T04:20:49;6.78;;;4.07;;
64598;SDS011;51008;51.504;11.548;2022-08-01T04:25:50;7.25;;;4.70;;
64598;SDS011;51008;51.504;11.548;2022-08-01T04:30:52;6.38;;;4.38;;
64598;SDS011;51008;51.504;11.548;2022-08-01T04:35:55;6.60;;;3.65;;
64598;SDS011;51008;51.504;11.548;2022-08-01T04:40:58;6.93;;;3.53;;
64598;SDS011;51008;51.504;11.548;2022-08-01T04:46:00;8.32;;;3.55;;
64598;SDS011;51008;51.504;11.548;2022-08-01T04:51:03;6.07;;;3.20;;
64598;SDS011;51008;51.504;11.548;2022-08-01T04:56:05;5.70;;;3.20;;
64598;SDS011;51008;51.504;11.548;2022-08-01T05:01:06;6.18;;;3.38;;
64598;SDS011;51008;51.504;11.548;2022-08-01T05:06:07;4.68;;;2.85;;
64598;SDS011;51008;51.504;11.548;2022-08-01T05:11:08;3.35;;;2.45;;
64598;SDS011;51008;51.504;11.548;2022-08-01T05:16:09;4.55;;;2.55;;
64598;SDS011;51008;51.504;11.548;2022-08-01T05:21:10;2.47;;;2.17;;
64598;SDS011;51008;51.504;11.548;2022-08-01T05:26:11;2.90;;;2.55;;
64598;SDS011;51008;51.504;11.548;2022-08-01T05:31:12;3.42;;;2.78;;
64598;SDS011;51008;51.504;11.548;2022-08-01T05:36:13;2.40;;;2.10;;
64598;SDS011;51008;51.504;11.548;2022-08-01T05:41:14;5.80;;;2.15;;
64598;SDS011;51008;51.504;11.548;2022-08-01T05:46:15;3.22;;;1.80;;
64598;SDS011;51008;51.504;11.548;2022-08-01T05:51:17;2.40;;;1.80;;
64598;SDS011;51008;51.504;11.548;2022-08-01T05:56:19;2.38;;;1.52;;
64598;SDS011;51008;51.504;11.548;2022-08-01T06:01:20;1.83;;;1.58;;
64598;SDS011;51008;51.504;11.548;2022-08-01T06:06:21;1.73;;;1.33;;
64598;SDS011;51008;51.504;11.548;2022-08-01T06:11:24;2.65;;;1.48;;
64598;SDS011;51008;51.504;11.548;2022-08-01T06:16:25;2.58;;;1.33;;
64598;SDS011;51008;51.504;11.548;2022-08-01T06:21:26;3.33;;;1.23;;
64598;SDS011;51008;51.504;11.548;2022-08-01T06:26:26;2.42;;;1.27;;
64598;SDS011;51008;51.504;11.548;2022-08-01T06:31:27;1.60;;;1.30;;
64598;SDS011;51008;51.504;11.548;2022-08-01T06:36:28;1.77;;;1.20;;
64598;SDS011;51008;51.504;11.548;2022-08-01T06:41:29;3.08;;;1.38;;
64598;SDS011;51008;51.504;11.548;2022-08-01T06:46:30;1.20;;;1.10;;
64598;SDS011;51008;51.504;11.548;2022-08-01T06:51:31;1.50;;;1.17;;
64598;SDS011;51008;51.504;11.548;2022-08-01T06:56:32;2.13;;;1.30;;
64598;SDS011;51008;51.504;11.548;2022-08-01T07:01:33;2.50;;;1.60;;
64598;SDS011;51008;51.504;11.548;2022-08-01T07:06:34;1.63;;;1.50;;
64598;SDS011;51008;51.504;11.548;2022-08-01T07:11:35;2.95;;;1.38;;
64598;SDS011;51008;51.504;11.548;2022-08-01T07:16:36;0.95;;;0.95;;
64598;SDS011;51008;51.504;11.548;2022-08-01T07:21:39;3.60;;;1.10;;
64598;SDS011;51008;51.504;11.548;2022-08-01T07:26:45;3.90;;;1.10;;
64598;SDS011;51008;51.504;11.548;2022-08-01T07:31:47;1.23;;;1.00;;
64598;SDS011;51008;51.504;11.548;2022-08-01T07:36:48;5.30;;;1.00;;
64598;SDS011;51008;51.504;11.548;2022-08-01T07:41:49;1.45;;;0.80;;
64598;SDS011;51008;51.504;11.548;2022-08-01T07:46:50;2.38;;;1.10;;
64598;SDS011;51008;51.504;11.548;2022-08-01T07:51:51;1.15;;;1.08;;
64598;SDS011;51008;51.504;11.548;2022-08-01T07:56:52;1.88;;;1.23;;
64598;SDS011;51008;51.504;11.548;2022-08-01T08:01:54;4.63;;;0.82;;
64598;SDS011;51008;51.504;11.548;2022-08-01T08:06:55;1.42;;;0.65;;
64598;SDS011;51008;51.504;11.548;2022-08-01T08:11:56;0.95;;;0.70;;
64598;SDS011;51008;51.504;11.548;2022-08-01T08:16:57;1.40;;;0.90;;
64598;SDS011;51008;51.504;11.548;2022-08-01T08:21:58;2.95;;;0.82;;
64598;SDS011;51008;51.504;11.548;2022-08-01T08:26:59;1.10;;;1.00;;
64598;SDS011;51008;51.504;11.548;2022-08-01T08:32:01;0.70;;;0.70;;
64598;SDS011;51008;51.504;11.548;2022-08-01T08:37:02;0.95;;;0.82;;
64598;SDS011;51008;51.504;11.548;2022-08-01T08:42:07;1.10;;;0.80;;
64598;SDS011;51008;51.504;11.548;2022-08-01T08:47:08;0.70;;;0.70;;
64598;SDS011;51008;51.504;11.548;2022-08-01T08:52:12;1.55;;;0.75;;
64598;SDS011;51008;51.504;11.548;2022-08-01T08:57:15;0.90;;;0.70;;
64598;SDS011;51008;51.504;11.548;2022-08-01T09:02:16;0.95;;;0.95;;
64598;SDS011;51008;51.504;11.548;2022-08-01T09:07:17;1.00;;;0.93;;
64598;SDS011;51008;51.504;11.548;2022-08-01T09:12:18;2.03;;;1.02;;
64598;SDS011;51008;51.504;11.548;2022-08-01T09:17:19;0.77;;;0.77;;
64598;SDS011;51008;51.504;11.548;2022-08-01T09:22:22;1.25;;;0.90;;
64598;SDS011;51008;51.504;11.548;2022-08-01T09:27:24;2.40;;;1.00;;
64598;SDS011;51008;51.504;11.548;2022-08-01T09:32:26;1.95;;;1.05;;
64598;SDS011;51008;51.504;11.548;2022-08-01T09:37:30;1.02;;;1.00;;
64598;SDS011;51008;51.504;11.548;2022-08-01T09:42:31;0.95;;;0.77;;
64598;SDS011;51008;51.504;11.548;2022-08-01T09:47:38;1.55;;;1.00;;
64598;SDS011;51008;51.504;11.548;2022-08-01T09:52:40;1.38;;;0.90;;
64598;SDS011;51008;51.504;11.548;2022-08-01T09:57:41;0.88;;;0.88;;
64598;SDS011;51008;51.504;11.548;2022-08-01T10:02:56;3.58;;;0.90;;
64598;SDS011;51008;51.504;11.548;2022-08-01T10:07:58;0.65;;;0.65;;
64598;SDS011;51008;51.504;11.548;2022-08-01T10:13:01;2.10;;;0.60;;
64598;SDS011;51008;51.504;11.548;2022-08-01T10:18:03;1.40;;;0.93;;
64598;SDS011;51008;51.504;11.548;2022-08-01T10:23:06;1.98;;;0.60;;
64598;SDS011;51008;51.504;11.548;2022-08-01T10:28:14;0.68;;;0.40;;
64598;SDS011;51008;51.504;11.548;2022-08-01T10:33:17;1.25;;;0.70;;
64598;SDS011;51008;51.504;11.548;2022-08-01T10:38:18;1.27;;;0.45;;
64598;SDS011;51008;51.504;11.548;2022-08-01T10:43:20;0.50;;;0.50;;
64598;SDS011;51008;51.504;11.548;2022-08-01T10:48:23;0.80;;;0.70;;
64598;SDS011;51008;51.504;11.548;2022-08-01T10:53:51;0.50;;;0.50;;
64598;SDS011;51008;51.504;11.548;2022-08-01T10:59:00;2.22;;;0.70;;
64598;SDS011;51008;51.504;11.548;2022-08-01T11:04:07;4.03;;;0.70;;
64598;SDS011;51008;51.504;11.548;2022-08-01T11:14:14;0.70;;;0.70;;
64598;SDS011;51008;51.504;11.548;2022-08-01T11:19:14;1.33;;;0.60;;
64598;SDS011;51008;51.504;11.548;2022-08-01T11:24:15;1.48;;;0.80;;
64598;SDS011;51008;51.504;11.548;2022-08-01T11:29:17;2.25;;;0.90;;
64598;SDS011;51008;51.504;11.548;2022-08-01T11:34:18;1.20;;;1.10;;
64598;SDS011;51008;51.504;11.548;2022-08-01T11:39:19;2.15;;;1.33;;
64598;SDS011;51008;51.504;11.548;2022-08-01T11:44:21;2.95;;;1.45;;
64598;SDS011;51008;51.504;11.548;2022-08-01T11:54:28;11.38;;;1.50;;
64598;SDS011;51008;51.504;11.548;2022-08-01T11:59:40;2.08;;;1.75;;
64598;SDS011;51008;51.504;11.548;2022-08-01T12:04:46;3.58;;;2.13;;
64598;SDS011;51008;51.504;11.548;2022-08-01T12:09:58;8.35;;;1.75;;
64598;SDS011;51008;51.504;11.548;2022-08-01T12:15:02;3.05;;;1.10;;
64598;SDS011;51008;51.504;11.548;2022-08-01T12:20:09;1.25;;;1.15;;
64598;SDS011;51008;51.504;11.548;2022-08-01T12:25:12;1.08;;;1.00;;
64598;SDS011;51008;51.504;11.548;2022-08-01T12:30:17;3.45;;;0.93;;
64598;SDS011;51008;51.504;11.548;2022-08-01T12:35:20;1.90;;;1.20;;
64598;SDS011;51008;51.504;11.548;2022-08-01T12:40:23;2.70;;;0.98;;
64598;SDS011;51008;51.504;11.548;2022-08-01T12:45:27;5.00;;;1.10;;
64598;SDS011;51008;51.504;11.548;2022-08-01T12:50:39;3.13;;;0.90;;
64598;SDS011;51008;51.504;11.548;2022-08-01T12:55:49;3.50;;;0.90;;
64598;SDS011;51008;51.504;11.548;2022-08-01T13:01:02;3.42;;;2.13;;
64598;SDS011;51008;51.504;11.548;2022-08-01T13:06:14;7.47;;;2.53;;
64598;SDS011;51008;51.504;11.548;2022-08-01T13:11:15;8.68;;;2.20;;
64598;SDS011;51008;51.504;11.548;2022-08-01T13:16:18;2.55;;;2.20;;
64598;SDS011;51008;51.504;11.548;2022-08-01T13:21:23;3.63;;;2.00;;
64598;SDS011;51008;51.504;11.548;2022-08-01T13:31:49;5.28;;;1.30;;
64598;SDS011;51008;51.504;11.548;2022-08-01T13:36:50;0.93;;;0.93;;
64598;SDS011;51008;51.504;11.548;2022-08-01T13:41:51;3.83;;;1.00;;
64598;SDS011;51008;51.504;11.548;2022-08-01T13:46:53;1.73;;;0.80;;
64598;SDS011;51008;51.504;11.548;2022-08-01T13:51:54;0.80;;;0.80;;
64598;SDS011;51008;51.504;11.548;2022-08-01T13:56:55;1.88;;;0.90;;
64598;SDS011;51008;51.504;11.548;2022-08-01T14:01:56;1.48;;;1.10;;
64598;SDS011;51008;51.504;11.548;2022-08-01T14:06:57;1.67;;;1.20;;
64598;SDS011;51008;51.504;11.548;2022-08-01T14:11:57;1.35;;;1.10;;
64598;SDS011;51008;51.504;11.548;2022-08-01T14:16:58;1.25;;;1.15;;
64598;SDS011;51008;51.504;11.548;2022-08-01T14:21:59;1.67;;;1.20;;
64598;SDS011;51008;51.504;11.548;2022-08-01T14:27:00;1.60;;;1.38;;
64598;SDS011;51008;51.504;11.548;2022-08-01T14:32:01;2.53;;;1.67;;
64598;SDS011;51008;51.504;11.548;2022-08-01T14:37:02;5.28;;;1.50;;
64598;SDS011;51008;51.504;11.548;2022-08-01T14:42:03;2.08;;;1.38;;
64598;SDS011;51008;51.504;11.548;2022-08-01T14:47:05;5.47;;;1.50;;
64598;SDS011;51008;51.504;11.548;2022-08-01T14:52:06;1.80;;;1.40;;
64598;SDS011;51008;51.504;11.548;2022-08-01T14:57:07;2.10;;;1.90;;
64598;SDS011;51008;51.504;11.548;2022-08-01T15:02:08;1.70;;;1.52;;
64598;SDS011;51008;51.504;11.548;2022-08-01T15:07:09;2.00;;;1.20;;
64598;SDS011;51008;51.504;11.548;2022-08-01T15:12:10;1.88;;;1.50;;
64598;SDS011;51008;51.504;11.548;2022-08-01T15:17:11;1.57;;;1.43;;
64598;SDS011;51008;51.504;11.548;2022-08-01T15:22:13;3.53;;;1.80;;
64598;SDS011;51008;51.504;11.548;2022-08-01T15:27:14;3.80;;;1.60;;
64598;SDS011;51008;51.504;11.548;2022-08-01T15:32:15;1.58;;;1.48;;
64598;SDS011;51008;51.504;11.548;2022-08-01T15:37:16;1.40;;;1.30;;
64598;SDS011;51008;51.504;11.548;2022-08-01T15:42:18;4.90;;;1.20;;
64598;SDS011;51008;51.504;11.548;2022-08-01T15:47:18;1.60;;;1.45;;
64598;SDS011;51008;51.504;11.548;2022-08-01T15:52:19;4.03;;;1.85;;
64598;SDS011;51008;51.504;11.548;2022-08-01T15:57:20;4.00;;;2.40;;
64598;SDS011;51008;51.504;11.548;2022-08-01T16:02:21;5.57;;;2.40;;
64598;SDS011;51008;51.504;11.548;2022-08-01T16:07:22;3.90;;;2.25;;
64598;SDS011;51008;51.504;11.548;2022-08-01T16:12:23;3.22;;;2.08;;
64598;SDS011;51008;51.504;11.548;2022-08-01T16:17:24;3.30;;;2.72;;
64598;SDS011;51008;51.504;11.548;2022-08-01T16:22:25;4.03;;;2.30;;
64598;SDS011;51008;51.504;11.548;2022-08-01T16:27:26;3.15;;;2.03;;
64598;SDS011;51008;51.504;11.548;2022-08-01T16:32:27;3.30;;;2.30;;
64598;SDS011;51008;51.504;11.548;2022-08-01T16:37:28;4.53;;;2.10;;
64598;SDS011;51008;51.504;11.548;2022-08-01T16:42:29;3.67;;;2.10;;
64598;SDS011;51008;51.504;11.548;2022-08-01T16:47:30;2.88;;;2.25;;
64598;SDS011;51008;51.504;11.548;2022-08-01T16:52:31;4.63;;;2.67;;
64598;SDS011;51008;51.504;11.548;2022-08-01T16:57:32;5.88;;;2.83;;
64598;SDS011;51008;51.504;11.548;2022-08-01T17:02:33;3.00;;;2.65;;
64598;SDS011;51008;51.504;11.548;2022-08-01T17:07:35;6.10;;;3.00;;
64598;SDS011;51008;51.504;11.548;2022-08-01T17:12:36;4.63;;;2.50;;
64598;SDS011;51008;51.504;11.548;2022-08-01T17:17:37;6.07;;;2.83;;
64598;SDS011;51008;51.504;11.548;2022-08-01T17:22:38;5.05;;;3.08;;
64598;SDS011;51008;51.504;11.548;2022-08-01T17:27:40;8.73;;;3.38;;
64598;SDS011;51008;51.504;11.548;2022-08-01T17:32:41;4.82;;;3.25;;
64598;SDS011;51008;51.504;11.548;2022-08-01T17:37:42;4.38;;;3.35;;
64598;SDS011;51008;51.504;11.548;2022-08-01T17:42:44;4.63;;;3.50;;
64598;SDS011;51008;51.504;11.548;2022-08-01T17:47:45;4.30;;;2.92;;
64598;SDS011;51008;51.504;11.548;2022-08-01T17:52:46;5.53;;;3.33;;
64598;SDS011;51008;51.504;11.548;2022-08-01T17:57:46;5.07;;;3.05;;
64598;SDS011;51008;51.504;11.548;2022-08-01T18:02:47;4.18;;;2.47;;
64598;SDS011;51008;51.504;11.548;2022-08-01T18:07:48;7.20;;;2.38;;
64598;SDS011;51008;51.504;11.548;2022-08-01T18:12:52;4.32;;;2.15;;
64598;SDS011;51008;51.504;11.548;2022-08-01T18:17:54;4.70;;;2.08;;
64598;SDS011;51008;51.504;11.548;2022-08-01T18:22:56;4.80;;;2.25;;
64598;SDS011;51008;51.504;11.548;2022-08-01T18:27:57;2.67;;;1.80;;
64598;SDS011;51008;51.504;11.548;2022-08-01T18:32:58;4.82;;;1.83;;
64598;SDS011;51008;51.504;11.548;2022-08-01T18:37:59;5.75;;;1.90;;
64598;SDS011;51008;51.504;11.548;2022-08-01T18:43:00;4.18;;;2.30;;
64598;SDS011;51008;51.504;11.548;2022-08-01T18:48:01;4.90;;;2.33;;
64598;SDS011;51008;51.504;11.548;2022-08-01T18:53:02;5.07;;;2.13;;
64598;SDS011;51008;51.504;11.548;2022-08-01T18:58:03;4.10;;;1.80;;
64598;SDS011;51008;51.504;11.548;2022-08-01T19:03:04;3.05;;;1.77;;
64598;SDS011;51008;51.504;11.548;2022-08-01T19:08:05;3.80;;;1.63;;
64598;SDS011;51008;51.504;11.548;2022-08-01T19:13:06;3.13;;;1.73;;
64598;SDS011;51008;51.504;11.548;2022-08-01T19:18:08;6.25;;;1.98;;
64598;SDS011;51008;51.504;11.548;2022-08-01T19:23:09;3.85;;;1.77;;
64598;SDS011;51008;51.504;11.548;2022-08-01T19:28:09;7.32;;;2.15;;
64598;SDS011;51008;51.504;11.548;2022-08-01T19:33:11;3.92;;;2.13;;
64598;SDS011;51008;51.504;11.548;2022-08-01T19:38:13;4.45;;;1.88;;
64598;SDS011;51008;51.504;11.548;2022-08-01T19:43:14;5.28;;;2.00;;
64598;SDS011;51008;51.504;11.548;2022-08-01T19:48:16;3.88;;;2.17;;
64598;SDS011;51008;51.504;11.548;2022-08-01T19:53:18;3.20;;;1.90;;
64598;SDS011;51008;51.504;11.548;2022-08-01T19:58:21;4.07;;;2.00;;
64598;SDS011;51008;51.504;11.548;2022-08-01T20:03:22;4.43;;;2.10;;
64598;SDS011;51008;51.504;11.548;2022-08-01T20:08:24;4.63;;;2.30;;
64598;SDS011;51008;51.504;11.548;2022-08-01T20:13:26;5.97;;;2.85;;
64598;SDS011;51008;51.504;11.548;2022-08-01T20:18:27;5.75;;;2.83;;
64598;SDS011;51008;51.504;11.548;2022-08-01T20:23:28;6.32;;;2.50;;
64598;SDS011;51008;51.504;11.548;2022-08-01T20:28:33;3.63;;;2.20;;
64598;SDS011;51008;51.504;11.548;2022-08-01T20:33:41;5.03;;;2.58;;
64598;SDS011;51008;51.504;11.548;2022-08-01T20:38:44;4.78;;;2.60;;
64598;SDS011;51008;51.504;11.548;2022-08-01T20:43:45;4.57;;;2.67;;
64598;SDS011;51008;51.504;11.548;2022-08-01T20:48:47;7.78;;;3.30;;
64598;SDS011;51008;51.504;11.548;2022-08-01T20:53:50;6.57;;;3.00;;
64598;SDS011;51008;51.504;11.548;2022-08-01T21:10:05;7.57;;;3.30;;
64598;SDS011;51008;51.504;11.548;2022-08-01T21:15:11;5.95;;;3.25;;
64598;SDS011;51008;51.504;11.548;2022-08-01T21:20:25;4.97;;;2.80;;
64598;SDS011;51008;51.504;11.548;2022-08-01T21:25:30;6.78;;;3.10;;
64598;SDS011;51008;51.504;11.548;2022-08-01T21:30:34;7.72;;;3.78;;
64598;SDS011;51008;51.504;11.548;2022-08-01T21:35:35;10.05;;;3.45;;
64598;SDS011;51008;51.504;11.548;2022-08-01T21:40:36;9.45;;;3.67;;
64598;SDS011;51008;51.504;11.548;2022-08-01T21:45:37;6.03;;;3.15;;
64598;SDS011;51008;51.504;11.548;2022-08-01T21:51:14;5.78;;;3.50;;
64598;SDS011;51008;51.504;11.548;2022-08-01T21:56:41;6.28;;;3.72;;
64598;SDS011;51008;51.504;11.548;2022-08-01T22:07:07;7.50;;;3.55;;
64598;SDS011;51008;51.504;11.548;2022-08-01T22:12:10;8.13;;;3.80;;
64598;SDS011;51008;51.504;11.548;2022-08-01T22:17:12;7.45;;;3.63;;
64598;SDS011;51008;51.504;11.548;2022-08-01T22:22:16;7.72;;;3.83;;
64598;SDS011;51008;51.504;11.548;2022-08-01T22:27:19;7.22;;;3.45;;
64598;SDS011;51008;51.504;11.548;2022-08-01T22:32:23;7.50;;;3.67;;
64598;SDS011;51008;51.504;11.548;2022-08-01T22:37:26;8.40;;;3.17;;
64598;SDS011;51008;51.504;11.548;2022-08-01T22:42:30;7.47;;;3.20;;
64598;SDS011;51008;51.504;11.548;2022-08-01T22:47:54;6.45;;;3.20;;
64598;SDS011;51008;51.504;11.548;2022-08-01T22:53:10;5.35;;;3.10;;
64598;SDS011;51008;51.504;11.548;2022-08-01T22:58:38;12.68;;;3.33;;
64598;SDS011;51008;51.504;11.548;2022-08-01T23:03:40;10.85;;;3.42;;
64598;SDS011;51008;51.504;11.548;2022-08-01T23:08:44;8.75;;;3.55;;
64598;SDS011;51008;51.504;11.548;2022-08-01T23:14:05;9.00;;;3.50;;
64598;SDS011;51008;51.504;11.548;2022-08-01T23:19:25;6.68;;;3.28;;
64598;SDS011;51008;51.504;11.548;2022-08-01T23:24:46;8.35;;;3.28;;
64598;SDS011;51008;51.504;11.548;2022-08-01T23:30:07;7.38;;;2.88;;
64598;SDS011;51008;51.504;11.548;2022-08-01T23:35:28;6.53;;;3.03;;
64598;SDS011;51008;51.504;11.548;2022-08-01T23:40:48;5.72;;;3.42;;
64598;SDS011;51008;51.504;11.548;2022-08-01T23:46:07;11.07;;;3.75;;
64598;SDS011;51008;51.504;11.548;2022-08-01T23:51:27;10.20;;;3.33;;
64598;SDS011;51008;51.504;11.548;2022-08-01T23:56:28;8.43;;;3.72;;
